Nar Weather



Nar's Current Weather

Temprature 32.579o clear sky

clear sky

Rain: 0 %

Min Temprature32.579o
Max Temprature32.579o
Humidity36
Wind Speed1.58 m/h
Sun Rise05:49:45
Sun Set18:08:36
Current Time: 18-Sep-2019 17:01:48
Lat/Lon: 33.4, 73.82




Nar's Geo Location



Nar's Weather Forecast

Time Overall Temp Min Temp Max Temp Humidity Wind Speed Rain
18-Sep-2019 (Wed)
20:00:00 clear sky 27.130 27.127 27.130 40 2.03 m/h 0 %
23:00:00 clear sky 24.340 24.338 24.340 48 2.79 m/h 0 %
19-Sep-2019 (Thu)
02:00:00 clear sky 23.050 23.050 23.050 51 2.47 m/h 0 %
05:00:00 clear sky 22.950 22.950 22.950 51 3.04 m/h 0 %
08:00:00 clear sky 27.004 27.004 27.004 46 1.71 m/h 0 %
11:00:00 clear sky 30.750 30.750 30.750 46 3.33 m/h 0 %
14:00:00 clear sky 32.850 32.850 32.850 37 1.69 m/h 0 %
17:00:00 clear sky 32.050 32.050 32.050 42 1.96 m/h 0 %
20:00:00 clear sky 26.950 26.950 26.950 51 0.68 m/h 0 %
23:00:00 clear sky 24.850 24.850 24.850 57 1.97 m/h 0 %
20-Sep-2019 (Fri)
02:00:00 clear sky 23.550 23.550 23.550 64 1.2 m/h 0 %
05:00:00 light rain 22.050 22.050 22.050 74 1.8 m/h 156 %
08:00:00 light rain 24.850 24.850 24.850 68 1.61 m/h 163 %
11:00:00 light rain 29.163 29.163 29.163 54 2.42 m/h 100 %
14:00:00 clear sky 31.650 31.650 31.650 43 1.88 m/h 0 %
17:00:00 few clouds 31.750 31.750 31.750 46 1.02 m/h 0 %
20:00:00 clear sky 26.650 26.650 26.650 53 1.22 m/h 0 %
23:00:00 clear sky 24.750 24.750 24.750 60 1.57 m/h 0 %
21-Sep-2019 (Sat)
02:00:00 clear sky 23.650 23.650 23.650 65 1.7 m/h 0 %
05:00:00 clear sky 23.086 23.086 23.086 67 1.2 m/h 0 %
08:00:00 scattered clouds 26.250 26.250 26.250 61 2.02 m/h 0 %
11:00:00 scattered clouds 29.363 29.363 29.363 54 2.58 m/h 0 %
14:00:00 clear sky 32.050 32.050 32.050 43 2.12 m/h 0 %
17:00:00 few clouds 31.650 31.650 31.650 47 1.37 m/h 0 %
20:00:00 clear sky 27.050 27.050 27.050 54 2.02 m/h 0 %
23:00:00 clear sky 25.163 25.163 25.163 60 1.9 m/h 0 %
22-Sep-2019 (Sun)
02:00:00 clear sky 24.243 24.243 24.243 63 1.58 m/h 0 %
05:00:00 clear sky 23.891 23.891 23.891 64 1.62 m/h 0 %
08:00:00 clear sky 27.365 27.365 27.365 57 1.99 m/h 0 %
11:00:00 clear sky 31.000 31.000 31.000 48 2.8 m/h 0 %
14:00:00 clear sky 33.150 33.150 33.150 40 2.52 m/h 0 %
17:00:00 few clouds 32.650 32.650 32.650 43 1.94 m/h 0 %
20:00:00 clear sky 27.996 27.996 27.996 50 1.29 m/h 0 %
23:00:00 clear sky 25.850 25.850 25.850 59 1.03 m/h 0 %
23-Sep-2019 (Mon)
02:00:00 clear sky 24.950 24.950 24.950 64 0.89 m/h 0 %
05:00:00 clear sky 24.450 24.450 24.450 66 1.67 m/h 0 %
08:00:00 clear sky 27.450 27.450 27.450 60 2.6 m/h 0 %
11:00:00 few clouds 30.450 30.450 30.450 53 4.08 m/h 0 %
14:00:00 clear sky 32.350 32.350 32.350 45 2.57 m/h 0 %
17:00:00 few clouds 32.365 32.365 32.365 44 0.65 m/h 0 %

Famous Cities (61)